Newmilns, United Kingdom
Current Conditions -  °F | °C
As of 4:20 PM on Sunday 21 Dec 2014 (Local Time) from EGPK Reporting Station
Light Rain Light Rain  
Wind Chill: 11°   Ceiling: 1200
Heat Index: 11°   Visibility: 4mi
Dew Point: 10°   Wind: 20mph
Humidity: 94%   Direction: 220°SW
Pressure: 29.74"   Gusts: NA
Location:  55.61°N, 4.32°W
Report Text: EGPK 211620Z 22017KT 7000 -RADZ SCT006 BKN012 11/10 Q1007
Loading
Personal Weather Stations






























Interactive Weather Map New forecast layout! Learn more

10-Day Weather Forecast

Advertisements
Track Severe Weather on mobile